Time;durP1;ratioP1;P1;durP2;ratioP2;P2;SDS_P1;SDS_P2;PMS_P1;PMS_P2;Temp;Humidity;BMP_temperature;BMP_pressure;BME280_temperature;BME280_humidity;BME280_pressure;Samples;Min_cycle;Max_cycle;Signal;HPM_P1;HPM_P2
2023/07/19 00:01:10;;;;;;;5.80;4.73;;;18.40;1.00;;;;;;5025799;28;20558;-75
2023/07/19 00:03:37;;;;;;;5.27;4.60;;;18.40;1.00;;;;;;5023588;28;20461;-75
2023/07/19 00:06:06;;;;;;;5.30;4.43;;;18.40;1.00;;;;;;5025266;28;20471;-75
2023/07/19 00:08:31;;;;;;;4.20;3.70;;;18.30;1.00;;;;;;5021770;28;20580;-74
2023/07/19 00:10:58;;;;;;;4.93;4.40;;;18.20;1.00;;;;;;5022040;28;20537;-74
2023/07/19 00:13:25;;;;;;;4.10;3.70;;;18.20;1.00;;;;;;5020073;28;20532;-75
2023/07/19 00:15:51;;;;;;;6.67;4.60;;;18.10;1.00;;;;;;5018594;28;20532;-77
2023/07/19 00:18:19;;;;;;;5.27;4.77;;;18.10;1.00;;;;;;5012236;28;20497;-75
2023/07/19 00:20:46;;;;;;;4.43;4.00;;;18.10;1.00;;;;;;5014543;28;20495;-75
2023/07/19 00:23:14;;;;;;;4.83;4.33;;;18.10;1.00;;;;;;5010537;28;20598;-75
2023/07/19 00:25:41;;;;;;;5.40;4.47;;;18.00;1.00;;;;;;5015151;28;20504;-75
2023/07/19 00:28:08;;;;;;;5.83;4.07;;;17.90;1.00;;;;;;5022522;28;21024;-75
2023/07/19 00:30:36;;;;;;;4.70;4.20;;;17.90;1.00;;;;;;5023620;28;20527;-75
2023/07/19 00:33:03;;;;;;;5.23;4.50;;;17.80;1.00;;;;;;5021862;28;20487;-75
2023/07/19 00:35:30;;;;;;;5.10;4.70;;;17.80;1.00;;;;;;5023008;28;20522;-75
2023/07/19 00:37:57;;;;;;;5.23;4.23;;;17.70;1.00;;;;;;5021009;28;20479;-75
2023/07/19 00:40:26;;;;;;;7.60;4.57;;;17.70;1.00;;;;;;5021067;28;20551;-75
2023/07/19 00:42:57;;;;;;;5.67;4.87;;;17.70;1.00;;;;;;5021234;28;20450;-74
2023/07/19 00:45:24;;;;;;;6.47;4.70;;;17.80;1.00;;;;;;5023804;28;20603;-75
2023/07/19 00:47:51;;;;;;;5.00;4.50;;;17.80;1.00;;;;;;5022469;28;20469;-74
2023/07/19 00:50:19;;;;;;;5.77;4.70;;;17.80;1.00;;;;;;5023555;28;20466;-75
2023/07/19 00:52:46;;;;;;;5.13;4.10;;;17.80;1.00;;;;;;5018635;28;20529;-74
2023/07/19 00:55:13;;;;;;;5.97;4.30;;;17.70;1.00;;;;;;5023735;28;21159;-74
2023/07/19 00:57:41;;;;;;;5.63;4.73;;;17.70;1.00;;;;;;5020524;28;20514;-74
2023/07/19 01:00:09;;;;;;;5.00;4.20;;;17.70;1.00;;;;;;5023360;28;20450;-75
2023/07/19 01:02:37;;;;;;;4.93;4.50;;;17.70;1.00;;;;;;5047034;22;21012;-73
2023/07/19 01:05:04;;;;;;;5.27;4.77;;;17.60;1.00;;;;;;5034067;28;20483;-72
2023/07/19 01:07:31;;;;;;;5.20;4.67;;;17.60;1.00;;;;;;5039657;28;20972;-72
2023/07/19 01:09:58;;;;;;;4.83;4.33;;;17.60;1.00;;;;;;5037208;28;20931;-72
2023/07/19 01:12:26;;;;;;;4.10;3.80;;;17.60;1.00;;;;;;5040576;28;20514;-71
2023/07/19 01:14:54;;;;;;;5.60;4.40;;;17.50;1.00;;;;;;5038750;28;20602;-71
2023/07/19 01:17:21;;;;;;;5.13;4.50;;;17.50;1.00;;;;;;5039780;28;20539;-72
2023/07/19 01:19:48;;;;;;;5.40;4.90;;;17.50;1.00;;;;;;5039928;28;20464;-71
2023/07/19 01:22:16;;;;;;;6.70;4.87;;;17.50;1.00;;;;;;5037072;28;20458;-72
2023/07/19 01:24:44;;;;;;;5.47;4.80;;;17.50;1.00;;;;;;5034859;28;20596;-72
2023/07/19 01:27:11;;;;;;;4.30;3.90;;;17.40;1.00;;;;;;5036589;28;20955;-72
2023/07/19 01:29:38;;;;;;;5.30;4.73;;;17.40;1.00;;;;;;5031784;28;20452;-71
2023/07/19 01:32:06;;;;;;;6.43;4.50;;;17.40;1.00;;;;;;5037286;28;20470;-72
2023/07/19 01:34:33;;;;;;;5.03;4.60;;;17.30;1.00;;;;;;5034996;28;20563;-72
2023/07/19 01:37:00;;;;;;;6.93;5.10;;;17.30;1.00;;;;;;5035534;28;20461;-71
2023/07/19 01:39:27;;;;;;;5.63;4.73;;;17.20;1.00;;;;;;5039362;28;20550;-72
2023/07/19 01:41:55;;;;;;;4.80;4.27;;;17.20;1.00;;;;;;5034063;28;20532;-71
2023/07/19 01:44:22;;;;;;;6.83;4.50;;;17.20;1.00;;;;;;5027027;28;20484;-72
2023/07/19 01:46:49;;;;;;;4.10;3.70;;;17.20;1.00;;;;;;5023839;28;20491;-72
2023/07/19 01:49:16;;;;;;;5.13;4.63;;;17.30;1.00;;;;;;5030875;28;20693;-72
2023/07/19 01:51:46;;;;;;;5.53;5.03;;;17.30;1.00;;;;;;5035089;28;20900;-72
2023/07/19 01:54:13;;;;;;;5.53;5.03;;;17.30;1.00;;;;;;5025613;28;20466;-72
2023/07/19 01:56:40;;;;;;;5.03;4.50;;;17.30;1.00;;;;;;5032737;28;20897;-72
2023/07/19 01:59:09;;;;;;;4.33;3.80;;;17.30;1.00;;;;;;5035997;28;20456;-72
2023/07/19 02:01:36;;;;;;;5.30;4.67;;;17.30;1.00;;;;;;5035469;28;20633;-72
2023/07/19 02:04:03;;;;;;;4.57;4.17;;;17.30;1.00;;;;;;5031214;28;21017;-71
2023/07/19 02:06:30;;;;;;;5.87;4.63;;;17.30;1.00;;;;;;5031030;28;20460;-71
2023/07/19 02:08:57;;;;;;;6.90;4.43;;;17.30;1.00;;;;;;5027577;28;20457;-71
2023/07/19 02:11:24;;;;;;;5.37;4.10;;;17.20;1.00;;;;;;5025131;28;20464;-72
2023/07/19 02:13:51;;;;;;;4.50;3.87;;;17.20;1.00;;;;;;5029682;28;20492;-71
2023/07/19 02:16:19;;;;;;;4.10;3.60;;;17.20;1.00;;;;;;5030715;28;20888;-72
2023/07/19 02:18:46;;;;;;;4.93;4.40;;;17.20;1.00;;;;;;5036538;28;20472;-71
2023/07/19 02:21:13;;;;;;;6.80;4.20;;;17.10;1.00;;;;;;5031535;28;20435;-71
2023/07/19 02:23:40;;;;;;;5.03;4.63;;;17.10;1.00;;;;;;5026664;28;20504;-74
2023/07/19 02:26:09;;;;;;;4.63;3.87;;;17.00;1.00;;;;;;5028367;28;20555;-73
2023/07/19 02:28:39;;;;;;;9.63;5.40;;;17.00;1.00;;;;;;5024614;28;20496;-73
2023/07/19 02:31:06;;;;;;;5.90;4.67;;;16.90;1.00;;;;;;5028684;28;20469;-74
2023/07/19 02:33:37;;;;;;;6.53;4.33;;;16.90;1.00;;;;;;5023921;28;20552;-73
2023/07/19 02:36:05;;;;;;;6.17;4.80;;;16.80;1.00;;;;;;5028814;28;20463;-74
2023/07/19 02:38:31;;;;;;;6.73;4.57;;;16.80;1.00;;;;;;5029966;28;21299;-74
2023/07/19 02:40:59;;;;;;;4.40;3.60;;;16.80;1.00;;;;;;5030263;28;20471;-73
2023/07/19 02:43:26;;;;;;;9.33;4.53;;;16.80;1.00;;;;;;5033848;28;20595;-73
2023/07/19 02:45:54;;;;;;;4.40;4.00;;;16.80;1.00;;;;;;5039693;28;20451;-73
2023/07/19 02:48:21;;;;;;;6.00;4.17;;;16.90;1.00;;;;;;5037107;28;20583;-73
2023/07/19 02:50:50;;;;;;;5.63;3.87;;;16.90;1.00;;;;;;5038237;28;20531;-73
2023/07/19 02:53:17;;;;;;;7.60;4.10;;;16.90;1.00;;;;;;5039048;28;20530;-72
2023/07/19 02:55:45;;;;;;;6.13;4.10;;;17.00;1.00;;;;;;5039742;28;20585;-73
2023/07/19 02:58:12;;;;;;;3.90;3.60;;;17.00;1.00;;;;;;5039210;28;20545;-73
2023/07/19 03:00:40;;;;;;;4.93;4.00;;;17.00;1.00;;;;;;5042304;28;20469;-74
2023/07/19 03:03:08;;;;;;;5.73;3.73;;;17.00;1.00;;;;;;5036977;28;20487;-73
2023/07/19 03:05:40;;;;;;;5.83;3.77;;;17.00;1.00;;;;;;5038856;28;20556;-74
2023/07/19 03:08:08;;;;;;;4.37;3.97;;;17.00;1.00;;;;;;5037414;28;20561;-73
2023/07/19 03:10:36;;;;;;;5.20;3.90;;;17.00;1.00;;;;;;5039587;28;20458;-74
2023/07/19 03:13:03;;;;;;;4.03;3.63;;;17.00;1.00;;;;;;5038806;28;20468;-73
2023/07/19 03:15:32;;;;;;;4.47;3.90;;;17.10;1.00;;;;;;5031945;28;20987;-74
2023/07/19 03:17:59;;;;;;;3.80;3.27;;;17.20;1.00;;;;;;5030371;28;20479;-73
2023/07/19 03:20:27;;;;;;;5.13;4.00;;;17.30;1.00;;;;;;5029606;28;20535;-73
2023/07/19 03:22:55;;;;;;;4.60;4.00;;;17.40;1.00;;;;;;5031340;28;20471;-74
2023/07/19 03:25:23;;;;;;;5.10;4.17;;;17.60;1.00;;;;;;5029433;28;20449;-73
2023/07/19 03:27:50;;;;;;;6.40;4.20;;;17.60;1.00;;;;;;5029509;28;20483;-73
2023/07/19 03:30:18;;;;;;;4.63;4.20;;;17.70;1.00;;;;;;5032598;28;20450;-76
2023/07/19 03:32:45;;;;;;;6.37;3.77;;;17.80;1.00;;;;;;5030149;28;21041;-73
2023/07/19 03:35:12;;;;;;;9.53;4.80;;;17.80;1.00;;;;;;5031155;28;20863;-73
2023/07/19 03:37:44;;;;;;;10.70;5.00;;;17.80;1.00;;;;;;5035943;28;21005;-74
2023/07/19 03:40:12;;;;;;;9.93;6.10;;;17.80;1.00;;;;;;5029991;28;20644;-73
2023/07/19 03:42:40;;;;;;;10.33;5.10;;;17.80;1.00;;;;;;5031428;28;22042;-74
2023/07/19 03:45:08;;;;;;;8.00;4.57;;;17.80;1.00;;;;;;5034334;28;20460;-73
2023/07/19 03:47:36;;;;;;;16.80;6.10;;;17.80;1.00;;;;;;5033698;28;20584;-73
2023/07/19 03:50:05;;;;;;;13.53;7.57;;;17.70;1.00;;;;;;5031357;28;20474;-74
2023/07/19 03:52:32;;;;;;;8.13;4.80;;;17.70;1.00;;;;;;5031397;28;20804;-73
2023/07/19 03:54:59;;;;;;;11.53;4.90;;;17.70;1.00;;;;;;5033326;28;20462;-72
2023/07/19 03:57:26;;;;;;;4.77;4.20;;;17.70;1.00;;;;;;5023220;28;20547;-73
2023/07/19 03:59:55;;;;;;;5.77;4.57;;;18.00;1.00;;;;;;5035224;28;20444;-73
2023/07/19 04:02:22;;;;;;;6.93;4.87;;;18.10;1.00;;;;;;5029025;28;20473;-72
2023/07/19 04:04:50;;;;;;;5.20;4.50;;;18.10;1.00;;;;;;5024261;28;20542;-73
2023/07/19 04:07:17;;;;;;;6.10;4.33;;;18.20;1.00;;;;;;5032794;28;20485;-73
2023/07/19 04:09:45;;;;;;;6.57;4.80;;;18.30;1.00;;;;;;5038787;28;20488;-74
2023/07/19 04:12:12;;;;;;;9.47;5.17;;;18.30;1.00;;;;;;5026778;28;20477;-75
2023/07/19 04:14:39;;;;;;;5.93;4.97;;;18.30;1.00;;;;;;5035615;28;20472;-74
2023/07/19 04:17:07;;;;;;;5.70;4.70;;;18.30;1.00;;;;;;5038752;28;21232;-74
2023/07/19 04:19:34;;;;;;;5.97;4.27;;;18.40;1.00;;;;;;5032419;28;20459;-75
2023/07/19 04:22:05;;;;;;;5.20;4.27;;;18.50;1.00;;;;;;5038131;28;20516;-74
2023/07/19 04:24:32;;;;;;;5.60;4.83;;;18.50;1.00;;;;;;5035153;28;20454;-74
2023/07/19 04:26:59;;;;;;;5.23;4.70;;;18.60;1.00;;;;;;5042105;28;20453;-73
2023/07/19 04:29:26;;;;;;;6.70;4.50;;;18.50;1.00;;;;;;5041711;28;20466;-74
2023/07/19 04:31:53;;;;;;;4.93;4.37;;;18.50;1.00;;;;;;5037864;28;20977;-73
2023/07/19 04:34:24;;;;;;;5.97;4.20;;;18.60;1.00;;;;;;5035550;28;20459;-73
2023/07/19 04:36:51;;;;;;;7.53;4.47;;;18.60;1.00;;;;;;5037470;28;20979;-75
2023/07/19 04:39:18;;;;;;;5.83;3.70;;;18.70;1.00;;;;;;5040191;28;20949;-74
2023/07/19 04:42:03;;;;;;;7.60;4.83;;;18.70;1.00;;;;;;5024437;28;20490;-76
2023/07/19 04:44:30;;;;;;;6.60;4.13;;;18.80;1.00;;;;;;5000892;28;20479;-75
2023/07/19 04:46:57;;;;;;;4.20;3.70;;;18.80;1.00;;;;;;5036995;28;20454;-73
2023/07/19 04:49:28;;;;;;;8.73;4.63;;;18.90;1.00;;;;;;5040683;28;20462;-74
2023/07/19 04:51:55;;;;;;;10.37;5.30;;;18.90;1.00;;;;;;5037092;28;20915;-75
2023/07/19 04:54:22;;;;;;;5.73;4.90;;;19.00;1.00;;;;;;5028554;28;20486;-74
2023/07/19 04:56:49;;;;;;;9.60;7.73;;;19.00;1.00;;;;;;5028589;28;21109;-74
2023/07/19 04:59:16;;;;;;;4.77;4.37;;;19.00;1.00;;;;;;5024782;28;20463;-74
2023/07/19 05:01:44;;;;;;;9.00;4.70;;;19.00;1.00;;;;;;5025497;28;20471;-75
2023/07/19 05:04:11;;;;;;;6.30;4.60;;;19.00;1.00;;;;;;5033314;28;20901;-75
2023/07/19 05:06:39;;;;;;;9.07;4.60;;;19.10;1.00;;;;;;5034260;28;20500;-73
2023/07/19 05:09:08;;;;;;;5.30;3.90;;;19.20;1.00;;;;;;5039133;28;20435;-74
2023/07/19 05:11:35;;;;;;;6.83;4.37;;;19.30;1.00;;;;;;5035508;28;20921;-73
2023/07/19 05:14:02;;;;;;;9.23;5.60;;;19.40;1.00;;;;;;5039356;28;20476;-74
2023/07/19 05:16:29;;;;;;;8.37;5.40;;;19.50;1.00;;;;;;5036686;28;20499;-73
2023/07/19 05:18:58;;;;;;;6.03;4.40;;;19.50;1.00;;;;;;5037286;28;20513;-74
2023/07/19 05:21:25;;;;;;;6.57;3.87;;;19.60;1.00;;;;;;5040269;28;20483;-74
2023/07/19 05:23:53;;;;;;;4.37;2.80;;;19.60;1.00;;;;;;5035159;28;20494;-73
2023/07/19 05:26:21;;;;;;;3.10;2.80;;;19.80;1.00;;;;;;5035162;28;20475;-74
2023/07/19 05:28:49;;;;;;;5.23;3.67;;;20.00;1.00;;;;;;5037997;28;20465;-74
2023/07/19 05:31:16;;;;;;;9.30;3.67;;;20.10;1.00;;;;;;5033217;28;20937;-75
2023/07/19 05:33:42;;;;;;;6.23;3.90;;;20.30;1.00;;;;;;5035202;28;20543;-74
2023/07/19 05:36:09;;;;;;;8.80;3.17;;;20.40;1.00;;;;;;5035064;28;20861;-73
2023/07/19 05:38:36;;;;;;;4.53;3.20;;;20.50;1.00;;;;;;5038115;28;20824;-74
2023/07/19 05:41:06;;;;;;;3.50;3.00;;;20.60;1.00;;;;;;5036917;28;20508;-73
2023/07/19 05:43:34;;;;;;;5.73;2.90;;;20.70;1.00;;;;;;5036687;28;20466;-75
2023/07/19 05:46:05;;;;;;;3.87;3.37;;;20.80;1.00;;;;;;5029057;28;20473;-73
2023/07/19 05:48:33;;;;;;;3.20;2.90;;;20.90;1.00;;;;;;5038575;28;20476;-74
2023/07/19 05:51:00;;;;;;;6.53;3.37;;;21.00;1.00;;;;;;5039160;28;20461;-74
2023/07/19 05:53:27;;;;;;;8.97;3.33;;;21.10;1.00;;;;;;5034884;28;20476;-76
2023/07/19 05:55:54;;;;;;;4.57;2.60;;;21.20;1.00;;;;;;5031558;28;20940;-77
2023/07/19 05:58:23;;;;;;;3.23;2.30;;;21.30;1.00;;;;;;5035604;28;20455;-76
2023/07/19 06:00:50;;;;;;;4.10;2.43;;;21.30;1.00;;;;;;5029357;28;20482;-76
2023/07/19 06:03:17;;;;;;;3.90;2.90;;;21.40;1.00;;;;;;5035798;28;20460;-76
2023/07/19 06:05:45;;;;;;;3.53;2.80;;;21.60;1.00;;;;;;5033116;28;20469;-74
2023/07/19 06:08:13;;;;;;;6.30;3.60;;;21.70;1.00;;;;;;5028037;28;20967;-74
2023/07/19 06:10:40;;;;;;;8.60;4.23;;;21.90;1.00;;;;;;5026879;28;20530;-74
2023/07/19 06:13:07;;;;;;;6.90;4.07;;;21.90;1.00;;;;;;5037658;28;20516;-76
2023/07/19 06:15:36;;;;;;;6.20;3.13;;;22.00;1.00;;;;;;5035270;28;20546;-76
2023/07/19 06:18:03;;;;;;;5.47;3.07;;;22.10;1.00;;;;;;5045629;28;20542;-76
2023/07/19 06:20:30;;;;;;;5.20;3.20;;;22.20;1.00;;;;;;5046196;28;22149;-76
2023/07/19 06:22:57;;;;;;;6.70;3.87;;;22.30;1.00;;;;;;5047628;28;20541;-76
2023/07/19 06:25:24;;;;;;;11.30;4.03;;;22.40;1.00;;;;;;5042408;28;20557;-75
2023/07/19 06:27:51;;;;;;;7.33;3.60;;;22.40;1.00;;;;;;5037785;28;20483;-75
2023/07/19 06:30:18;;;;;;;7.03;5.00;;;22.50;1.00;;;;;;5034949;28;20471;-74
2023/07/19 06:32:46;;;;;;;7.17;3.33;;;22.70;1.00;;;;;;5043366;28;20464;-74
2023/07/19 06:35:13;;;;;;;20.20;18.17;;;22.80;1.00;;;;;;5041923;28;20500;-74
2023/07/19 06:37:40;;;;;;;6.00;3.90;;;22.80;1.00;;;;;;5040685;28;20550;-76
2023/07/19 06:40:08;;;;;;;9.40;3.27;;;22.90;1.00;;;;;;5042113;28;20464;-75
2023/07/19 06:42:35;;;;;;;7.20;4.30;;;22.90;1.00;;;;;;5042447;28;20484;-75
2023/07/19 06:45:03;;;;;;;4.50;3.17;;;22.90;1.00;;;;;;5040979;28;20468;-75
2023/07/19 06:47:30;;;;;;;3.13;2.83;;;23.00;1.00;;;;;;5044355;28;20474;-75
2023/07/19 06:50:00;;;;;;;3.30;2.70;;;23.20;1.00;;;;;;5045139;28;20452;-78
2023/07/19 06:52:27;;;;;;;5.60;2.70;;;23.40;1.00;;;;;;5043024;28;20563;-78
2023/07/19 06:54:54;;;;;;;6.37;3.50;;;23.50;1.00;;;;;;5040292;28;20887;-75
2023/07/19 06:57:21;;;;;;;4.77;3.40;;;23.50;1.00;;;;;;5045899;28;20458;-75
2023/07/19 06:59:49;;;;;;;4.10;3.20;;;23.40;1.00;;;;;;5041950;28;20477;-75
2023/07/19 07:02:18;;;;;;;3.90;2.97;;;23.30;1.00;;;;;;5039203;28;20537;-75
2023/07/19 07:04:45;;;;;;;3.07;2.20;;;23.10;1.00;;;;;;5040928;28;20549;-76
2023/07/19 07:07:15;;;;;;;3.60;3.07;;;23.10;1.00;;;;;;5044043;28;20941;-76
2023/07/19 07:09:42;;;;;;;9.63;3.30;;;23.30;1.00;;;;;;5039690;28;21248;-77
2023/07/19 07:12:10;;;;;;;4.87;2.50;;;23.40;1.00;;;;;;5041156;28;20911;-77
2023/07/19 07:14:37;;;;;;;4.67;3.00;;;23.70;1.00;;;;;;5023353;28;20465;-76
2023/07/19 07:17:07;;;;;;;4.27;2.87;;;23.80;1.00;;;;;;5041929;28;20468;-76
2023/07/19 07:19:34;;;;;;;6.43;3.77;;;24.00;1.00;;;;;;5040576;28;20914;-77
2023/07/19 07:22:01;;;;;;;6.57;3.33;;;24.20;1.00;;;;;;5043274;28;20554;-78
2023/07/19 07:24:29;;;;;;;4.93;3.23;;;24.30;1.00;;;;;;5038783;28;20460;-77
2023/07/19 07:26:56;;;;;;;8.50;3.50;;;24.30;1.00;;;;;;5041088;28;20551;-77
2023/07/19 07:29:23;;;;;;;6.37;3.03;;;24.40;1.00;;;;;;5042233;28;20583;-77
2023/07/19 07:31:52;;;;;;;10.40;3.83;;;24.40;1.00;;;;;;5016803;28;20550;-75
2023/07/19 07:34:19;;;;;;;4.43;3.10;;;24.50;1.00;;;;;;5034042;28;20540;-74
2023/07/19 07:36:46;;;;;;;4.30;3.20;;;24.40;1.00;;;;;;5042305;28;20476;-75
2023/07/19 07:39:13;;;;;;;6.50;2.83;;;24.50;1.00;;;;;;5040561;28;22672;-74
2023/07/19 07:41:41;;;;;;;5.60;3.27;;;24.60;1.00;;;;;;5033739;28;20488;-77
2023/07/19 07:44:08;;;;;;;4.97;2.53;;;24.60;1.00;;;;;;5040957;28;20499;-77
2023/07/19 07:46:35;;;;;;;7.10;2.73;;;24.50;1.00;;;;;;5037722;28;20486;-78
2023/07/19 07:49:07;;;;;;;3.70;3.00;;;24.60;1.00;;;;;;5043799;28;20952;-78
2023/07/19 07:51:35;;;;;;;5.80;3.30;;;24.70;1.00;;;;;;5039322;28;20463;-76
2023/07/19 07:54:02;;;;;;;5.40;3.20;;;24.90;1.00;;;;;;5045646;28;20598;-77
2023/07/19 07:56:29;;;;;;;5.07;3.00;;;25.00;1.00;;;;;;5039652;28;20459;-78
2023/07/19 07:58:58;;;;;;;3.20;2.90;;;24.90;1.00;;;;;;5042372;28;20560;-79
2023/07/19 08:01:25;;;;;;;5.73;3.20;;;24.90;1.00;;;;;;5049090;28;20518;-79
2023/07/19 08:03:53;;;;;;;7.10;3.10;;;25.10;1.00;;;;;;5040776;28;20479;-78
2023/07/19 08:06:20;;;;;;;6.40;3.10;;;25.30;1.00;;;;;;5041662;28;20552;-79
2023/07/19 08:08:47;;;;;;;3.10;2.77;;;25.50;1.00;;;;;;5043804;28;20483;-77
2023/07/19 08:11:14;;;;;;;4.97;3.10;;;25.60;1.00;;;;;;5045308;28;20436;-76
2023/07/19 08:13:41;;;;;;;3.13;2.70;;;26.00;1.00;;;;;;5037198;28;20477;-75
2023/07/19 08:16:09;;;;;;;3.33;3.03;;;26.30;1.00;;;;;;5043913;28;20462;-78
2023/07/19 08:18:36;;;;;;;4.37;2.83;;;26.60;1.00;;;;;;5041531;28;20481;-79
2023/07/19 08:21:05;;;;;;;5.30;2.63;;;26.60;1.00;;;;;;5041173;28;21066;-77
2023/07/19 08:23:32;;;;;;;4.40;3.23;;;26.60;1.00;;;;;;5040612;28;20472;-77
2023/07/19 08:26:02;;;;;;;3.50;2.50;;;26.60;1.00;;;;;;5043622;28;20479;-78
2023/07/19 08:28:29;;;;;;;5.77;2.97;;;26.70;1.00;;;;;;5040006;28;21043;-79
2023/07/19 08:30:56;;;;;;;6.50;2.87;;;26.60;1.00;;;;;;5038606;28;23292;-77
2023/07/19 08:33:25;;;;;;;5.90;2.70;;;26.60;1.00;;;;;;5041219;28;20500;-77
2023/07/19 08:35:52;;;;;;;6.87;3.10;;;26.70;1.00;;;;;;5042263;28;20920;-78
2023/07/19 08:38:20;;;;;;;6.07;2.70;;;26.50;1.00;;;;;;5038383;28;20954;-77
2023/07/19 08:40:55;;;;;;;3.60;2.73;;;26.60;1.00;;;;;;5040995;28;20500;-77
2023/07/19 08:43:27;;;;;;;3.73;3.10;;;26.80;1.00;;;;;;5043022;28;20470;-77
2023/07/19 08:45:56;;;;;;;3.50;2.33;;;27.10;1.00;;;;;;5042640;28;20442;-79
2023/07/19 08:48:24;;;;;;;3.03;2.73;;;27.00;1.00;;;;;;5036991;28;20487;-75
2023/07/19 08:50:55;;;;;;;2.73;2.30;;;27.10;1.00;;;;;;5039522;28;21153;-75
2023/07/19 08:53:23;;;;;;;2.93;2.57;;;27.10;1.00;;;;;;5038306;28;20554;-78
2023/07/19 08:55:51;;;;;;;3.43;2.87;;;27.20;1.00;;;;;;5045976;28;20493;-79
2023/07/19 08:58:18;;;;;;;4.97;2.70;;;27.50;1.00;;;;;;5039398;28;20960;-80
2023/07/19 09:00:47;;;;;;;2.93;2.60;;;27.80;1.00;;;;;;5046048;28;20449;-79
2023/07/19 09:03:15;;;;;;;7.70;3.90;;;28.10;1.00;;;;;;5041433;28;20648;-78
2023/07/19 09:05:46;;;;;;;5.17;2.50;;;28.00;1.00;;;;;;5025357;28;20431;-75
2023/07/19 09:08:13;;;;;;;3.53;2.67;;;28.30;1.00;;;;;;5032629;28;20530;-76
2023/07/19 09:10:43;;;;;;;5.30;3.57;;;28.40;1.00;;;;;;5037388;28;20887;-76
2023/07/19 09:13:10;;;;;;;4.80;2.40;;;28.50;1.00;;;;;;5045028;28;20544;-76
2023/07/19 09:15:37;;;;;;;3.20;2.70;;;28.40;1.00;;;;;;5043521;28;20477;-77
2023/07/19 09:18:07;;;;;;;2.70;2.50;;;28.40;1.00;;;;;;5046033;28;20906;-79
2023/07/19 09:20:37;;;;;;;2.50;2.30;;;28.50;1.00;;;;;;5043903;28;20457;-74
2023/07/19 09:23:07;;;;;;;2.77;2.33;;;28.60;1.00;;;;;;5042747;28;20920;-75
2023/07/19 09:25:34;;;;;;;2.80;2.57;;;28.70;1.00;;;;;;5040660;28;20475;-77
2023/07/19 09:28:08;;;;;;;3.90;2.20;;;28.70;1.00;;;;;;5040136;28;20495;-74
2023/07/19 09:30:35;;;;;;;4.40;2.37;;;28.40;1.00;;;;;;5041931;28;20934;-78
2023/07/19 09:33:02;;;;;;;4.07;3.67;;;28.20;1.00;;;;;;5046295;28;20459;-79
2023/07/19 09:35:30;;;;;;;3.10;2.43;;;28.00;1.00;;;;;;5044123;28;20460;-77
2023/07/19 09:37:58;;;;;;;4.40;2.57;;;28.10;1.00;;;;;;5039777;28;21817;-79
2023/07/19 09:40:27;;;;;;;3.27;2.27;;;28.30;1.00;;;;;;5033198;28;20593;-74
2023/07/19 09:42:55;;;;;;;7.87;3.07;;;28.40;1.00;;;;;;5028407;28;20477;-74
2023/07/19 09:45:25;;;;;;;5.80;3.13;;;29.30;1.00;;;;;;5027434;28;20650;-76
2023/07/19 09:47:54;;;;;;;5.13;4.60;;;30.50;1.00;;;;;;5029263;28;20470;-74
2023/07/19 09:50:22;;;;;;;2.73;2.53;;;31.60;1.00;;;;;;5024394;28;20562;-80
2023/07/19 09:52:52;;;;;;;3.33;2.50;;;32.30;1.00;;;;;;5029152;28;20471;-79
2023/07/19 09:55:21;;;;;;;4.73;2.57;;;32.00;1.00;;;;;;5034627;28;20579;-76
2023/07/19 09:57:50;;;;;;;4.23;2.63;;;31.10;1.00;;;;;;5042334;28;22822;-76
2023/07/19 10:00:18;;;;;;;3.13;2.83;;;30.40;1.00;;;;;;5027647;28;20464;-74
2023/07/19 10:02:46;;;;;;;2.70;2.17;;;29.70;1.00;;;;;;5035889;28;20542;-76
2023/07/19 10:05:14;;;;;;;4.33;2.90;;;29.50;1.00;;;;;;5042823;28;20420;-75
2023/07/19 10:07:42;;;;;;;3.40;2.77;;;30.20;1.00;;;;;;5042914;28;20480;-74
2023/07/19 10:10:14;;;;;;;3.67;2.60;;;30.90;1.00;;;;;;5043077;28;20460;-75
2023/07/19 10:12:47;;;;;;;3.83;2.87;;;30.70;1.00;;;;;;5040616;28;20464;-75
2023/07/19 10:15:18;;;;;;;3.87;2.50;;;30.60;1.00;;;;;;5037361;28;20975;-75
2023/07/19 10:17:55;;;;;;;2.20;2.03;;;30.90;1.00;;;;;;5043332;28;20570;-77
2023/07/19 10:20:23;;;;;;;4.73;2.63;;;31.30;1.00;;;;;;5043536;28;20458;-75
2023/07/19 10:22:55;;;;;;;4.23;2.77;;;31.00;1.00;;;;;;5045568;28;20540;-75
2023/07/19 10:25:25;;;;;;;5.80;2.63;;;30.40;1.00;;;;;;5038067;28;20471;-74
2023/07/19 10:28:00;;;;;;;6.60;3.20;;;29.40;1.00;;;;;;5036722;28;20490;-76
2023/07/19 10:31:02;;;;;;;3.80;2.33;;;29.10;1.00;;;;;;5039226;28;20505;-74
2023/07/19 10:33:33;;;;;;;3.57;2.90;;;29.10;1.00;;;;;;5039014;28;20531;-74
2023/07/19 10:36:07;;;;;;;2.57;2.37;;;29.30;1.00;;;;;;5028559;28;21067;-74
2023/07/19 10:38:34;;;;;;;4.90;2.33;;;29.60;1.00;;;;;;5032226;28;20588;-75
2023/07/19 10:41:04;;;;;;;3.67;2.40;;;29.70;1.00;;;;;;5026567;28;20483;-74
2023/07/19 10:43:33;;;;;;;3.47;2.67;;;29.70;1.00;;;;;;5033934;28;20463;-74
2023/07/19 10:46:03;;;;;;;5.20;2.97;;;30.50;1.00;;;;;;5037627;28;20487;-75
2023/07/19 10:48:33;;;;;;;5.07;2.90;;;31.30;1.00;;;;;;5029661;28;20481;-75
2023/07/19 10:51:01;;;;;;;3.40;2.97;;;32.50;1.00;;;;;;5028265;28;20453;-75
2023/07/19 10:53:28;;;;;;;4.23;2.87;;;33.50;1.00;;;;;;5038566;28;20471;-75
2023/07/19 10:55:55;;;;;;;6.10;3.50;;;34.50;1.00;;;;;;5040707;28;21194;-76
2023/07/19 10:58:22;;;;;;;3.80;2.97;;;34.90;1.00;;;;;;5036791;28;20558;-76
2023/07/19 11:00:50;;;;;;;4.57;2.97;;;35.20;1.00;;;;;;5035429;28;20496;-75
2023/07/19 11:03:17;;;;;;;2.73;2.53;;;35.10;1.00;;;;;;5039117;28;20464;-74
2023/07/19 11:05:48;;;;;;;4.10;2.97;;;34.40;1.00;;;;;;5029653;28;20969;-74
2023/07/19 11:08:21;;;;;;;7.43;3.70;;;34.30;1.00;;;;;;5034435;28;20562;-76
2023/07/19 11:10:50;;;;;;;2.90;2.63;;;34.60;1.00;;;;;;5027440;28;20791;-79
2023/07/19 11:13:17;;;;;;;4.67;2.87;;;35.50;1.00;;;;;;5030204;28;20508;-78
2023/07/19 11:15:49;;;;;;;3.00;2.80;;;35.70;1.00;;;;;;5033966;28;20536;-75
2023/07/19 11:18:24;;;;;;;3.30;3.00;;;35.00;1.00;;;;;;5031912;28;20502;-76
2023/07/19 11:20:52;;;;;;;5.30;3.23;;;35.20;1.00;;;;;;5032742;28;21054;-78
2023/07/19 11:23:19;;;;;;;3.47;2.57;;;36.20;1.00;;;;;;5034666;28;20458;-75
2023/07/19 11:25:47;;;;;;;3.27;2.50;;;37.30;1.00;;;;;;5030632;28;20472;-78
2023/07/19 11:28:14;;;;;;;3.00;2.73;;;38.30;1.00;;;;;;5033516;28;20503;-77
2023/07/19 11:30:41;;;;;;;3.47;3.17;;;38.80;1.00;;;;;;5013411;28;20475;-77
2023/07/19 11:33:10;;;;;;;3.97;2.40;;;38.30;1.00;;;;;;5033524;28;21190;-77
2023/07/19 11:35:39;;;;;;;4.57;3.20;;;37.70;1.00;;;;;;5032314;28;20473;-80
2023/07/19 11:38:08;;;;;;;4.30;2.97;;;36.80;1.00;;;;;;5039432;28;20465;-79
2023/07/19 11:40:35;;;;;;;3.53;3.00;;;36.10;1.00;;;;;;5007526;28;20468;-79
2023/07/19 11:43:02;;;;;;;9.00;2.50;;;35.80;1.00;;;;;;5029536;28;20460;-78
2023/07/19 11:45:32;;;;;;;3.00;2.60;;;34.70;1.00;;;;;;5037533;28;20472;-79
2023/07/19 11:48:04;;;;;;;4.17;3.00;;;33.60;1.00;;;;;;5037246;28;20848;-77
2023/07/19 11:50:31;;;;;;;2.93;2.60;;;32.60;1.00;;;;;;5033808;28;20472;-81
2023/07/19 11:53:01;;;;;;;5.33;2.93;;;32.30;1.00;;;;;;5016839;28;20999;-78
2023/07/19 11:55:31;;;;;;;6.87;2.50;;;32.80;1.00;;;;;;5032314;28;20481;-79
2023/07/19 11:58:03;;;;;;;3.60;2.20;;;34.10;1.00;;;;;;5030350;28;20624;-76
2023/07/19 12:00:31;;;;;;;3.53;3.23;;;34.50;1.00;;;;;;5030508;28;20467;-77
2023/07/19 12:03:01;;;;;;;3.40;2.17;;;35.00;1.00;;;;;;5032841;28;21678;-77
2023/07/19 12:05:30;;;;;;;3.27;2.60;;;35.20;1.00;;;;;;5036219;28;21136;-79
2023/07/19 12:07:58;;;;;;;4.40;2.70;;;36.00;1.00;;;;;;5031072;28;21643;-80
2023/07/19 12:10:26;;;;;;;2.70;2.50;;;36.40;1.00;;;;;;5041856;28;20510;-80
2023/07/19 12:13:11;;;;;;;2.73;2.23;;;37.20;1.00;;;;;;5044813;28;20597;-83
2023/07/19 12:18:52;;;;;;;;;;;;;;;;;;;;;
2023/07/19 12:21:31;;;;;;;2.90;2.47;;;36.30;1.00;;;;;;5043455;28;50976;-82
2023/07/19 12:23:58;;;;;;;7.30;4.60;;;34.40;1.00;;;;;;5044070;28;20543;-79
2023/07/19 12:26:27;;;;;;;3.87;3.03;;;33.50;1.00;;;;;;5047786;28;20477;-82
2023/07/19 12:28:55;;;;;;;12.00;11.20;;;32.90;1.00;;;;;;5036299;28;21079;-78
2023/07/19 12:31:22;;;;;;;5.77;3.20;;;32.10;1.00;;;;;;5041209;28;20952;-80
2023/07/19 12:33:49;;;;;;;6.17;3.33;;;31.40;1.00;;;;;;5041940;28;20677;-78
2023/07/19 12:36:16;;;;;;;3.80;2.83;;;30.90;1.00;;;;;;5045729;28;20472;-79
2023/07/19 12:38:47;;;;;;;3.40;2.60;;;30.50;1.00;;;;;;5025961;28;20476;-79
2023/07/19 12:41:15;;;;;;;5.67;3.37;;;30.20;1.00;;;;;;5031926;28;20496;-79
2023/07/19 12:43:42;;;;;;;6.57;2.80;;;30.50;1.00;;;;;;5029629;28;20484;-79
2023/07/19 12:46:10;;;;;;;3.80;3.40;;;31.60;1.00;;;;;;5035495;28;22759;-79
2023/07/19 12:48:38;;;;;;;4.10;2.63;;;33.60;1.00;;;;;;5032664;28;20500;-78
2023/07/19 12:51:06;;;;;;;6.07;2.97;;;35.30;1.00;;;;;;5030750;28;20511;-79
2023/07/19 12:53:34;;;;;;;4.00;3.60;;;35.50;1.00;;;;;;5032679;28;20512;-79
2023/07/19 12:56:01;;;;;;;4.33;3.10;;;34.40;1.00;;;;;;5042833;28;20465;-78
2023/07/19 12:58:30;;;;;;;4.10;2.53;;;34.10;1.00;;;;;;5028509;28;20479;-80
2023/07/19 13:00:57;;;;;;;10.30;3.43;;;34.30;1.00;;;;;;5033788;28;20811;-80
2023/07/19 13:03:27;;;;;;;4.97;2.80;;;34.20;1.00;;;;;;5031201;28;20484;-76
2023/07/19 13:05:54;;;;;;;8.30;4.20;;;35.30;1.00;;;;;;5034643;28;20440;-78